Time,TemperatureF,DewpointF,PressureIn,WindDirection,WindDirectionDegrees,WindSpeedMPH,WindSpeedGustMPH,Humidity,HourlyPrecipIn,Conditions,Clouds,dailyrainin,SoftwareType,DateUTC
2013-01-29 00:02:00,56.0,56.0,-100.00,South,180,19.0,26.0,99,-99.99,,,-99.99,,2013-01-29 06:02:00,
2013-01-29 00:11:00,56.0,55.0,-100.00,South,175,16.0,24.0,99,-99.99,,,-99.99,,2013-01-29 06:11:00,
2013-01-29 00:21:00,56.0,56.0,-100.00,South,185,16.0,25.0,99,-99.99,,,-99.99,,2013-01-29 06:21:00,
2013-01-29 00:32:00,56.0,56.0,-100.00,South,190,18.0,26.0,99,-99.99,,,-99.99,,2013-01-29 06:32:00,
2013-01-29 00:42:00,56.0,56.0,-100.00,South,190,18.0,26.0,99,-99.99,,,-99.99,,2013-01-29 06:42:00,
2013-01-29 00:52:00,56.0,55.0,-100.00,South,190,16.0,26.0,99,-99.99,,,-99.99,,2013-01-29 06:52:00,
2013-01-29 01:01:00,56.0,55.0,-100.00,South,190,16.0,26.0,99,-99.99,,,-99.99,,2013-01-29 07:01:00,
2013-01-29 01:11:00,56.0,56.0,-100.00,South,190,17.0,23.0,99,-99.99,,,-99.99,,2013-01-29 07:11:00,
2013-01-29 01:21:00,56.0,55.0,-100.00,SSW,200,16.0,21.0,98,-99.99,,,-99.99,,2013-01-29 07:21:00,
2013-01-29 01:32:00,56.0,55.0,-100.00,SSW,200,16.0,21.0,98,-99.99,,,-99.99,,2013-01-29 07:32:00,
2013-01-29 01:42:00,56.0,56.0,-100.00,SSW,205,17.0,24.0,98,-99.99,,,-99.99,,2013-01-29 07:42:00,
2013-01-29 01:52:00,56.0,56.0,-100.00,SSW,195,19.0,25.0,98,-99.99,,,-99.99,,2013-01-29 07:52:00,
2013-01-29 02:02:00,56.0,56.0,-100.00,SSW,195,19.0,25.0,98,-99.99,,,-99.99,,2013-01-29 08:02:00,
2013-01-29 02:11:00,57.0,57.0,-100.00,South,190,21.0,29.0,97,-99.99,,,-99.99,,2013-01-29 08:11:00,
2013-01-29 02:21:00,58.0,57.0,-100.00,SSW,195,23.0,29.0,96,-99.99,,,-99.99,,2013-01-29 08:21:00,
2013-01-29 02:31:00,58.0,57.0,-100.00,SSW,195,23.0,29.0,96,-99.99,,,-99.99,,2013-01-29 08:31:00,
2013-01-29 02:41:00,58.0,57.0,-100.00,SSW,200,23.0,29.0,95,-99.99,,,-99.99,,2013-01-29 08:41:00,
2013-01-29 02:52:00,59.0,57.0,-100.00,SSW,200,23.0,30.0,95,-99.99,,,-99.99,,2013-01-29 08:52:00,
2013-01-29 03:01:00,59.0,57.0,-100.00,SSW,200,23.0,30.0,95,-99.99,,,-99.99,,2013-01-29 09:01:00,
2013-01-29 03:11:00,58.0,57.0,-100.00,SSW,205,20.0,29.0,95,-99.99,,,-99.99,,2013-01-29 09:11:00,
2013-01-29 03:21:00,58.0,57.0,-100.00,SSW,205,20.0,29.0,95,-99.99,,,-99.99,,2013-01-29 09:21:00,
2013-01-29 03:42:00,58.0,57.0,-100.00,SSW,210,24.0,32.0,95,-99.99,,,-99.99,,2013-01-29 09:42:00,
2013-01-29 03:52:00,59.0,57.0,-100.00,SSW,205,24.0,33.0,95,-99.99,,,-99.99,,2013-01-29 09:52:00,
2013-01-29 04:01:00,59.0,57.0,-100.00,SSW,205,24.0,33.0,95,-99.99,,,-99.99,,2013-01-29 10:01:00,
2013-01-29 04:11:00,58.0,57.0,-100.00,SSW,210,23.0,32.0,95,-99.99,,,-99.99,,2013-01-29 10:11:00,
2013-01-29 04:21:00,58.0,57.0,-100.00,SSW,210,22.0,29.0,95,-99.99,,,-99.99,,2013-01-29 10:21:00,
2013-01-29 04:32:00,58.0,57.0,-100.00,SSW,210,22.0,29.0,95,-99.99,,,-99.99,,2013-01-29 10:32:00,
2013-01-29 04:41:00,58.0,57.0,-100.00,SSW,200,22.0,28.0,94,-99.99,,,-99.99,,2013-01-29 10:41:00,
2013-01-29 04:52:00,59.0,57.0,-100.00,SSW,200,21.0,31.0,94,-99.99,,,-99.99,,2013-01-29 10:52:00,
2013-01-29 05:02:00,59.0,57.0,-100.00,SSW,200,21.0,31.0,94,-99.99,,,-99.99,,2013-01-29 11:02:00,
2013-01-29 05:11:00,59.0,57.0,-100.00,SSW,195,24.0,28.0,95,-99.99,,,-99.99,,2013-01-29 11:11:00,
2013-01-29 05:22:00,59.0,58.0,-100.00,SW,215,18.0,32.0,95,-99.99,,,-99.99,,2013-01-29 11:22:00,
2013-01-29 05:32:00,59.0,58.0,-100.00,SW,215,18.0,32.0,95,-99.99,,,-99.99,,2013-01-29 11:32:00,
2013-01-29 05:42:00,59.0,58.0,-100.00,SSW,205,23.0,30.0,95,-99.99,,,-99.99,,2013-01-29 11:42:00,
2013-01-29 05:53:00,60.0,58.0,-100.00,SSW,200,24.0,34.0,95,-99.99,,,-99.99,,2013-01-29 11:53:00,
2013-01-29 06:02:00,60.0,58.0,-100.00,SSW,200,24.0,34.0,95,-99.99,,,-99.99,,2013-01-29 12:02:00,
2013-01-29 06:12:00,60.0,58.0,-100.00,SSW,195,22.0,30.0,95,-99.99,,,-99.99,,2013-01-29 12:12:00,
2013-01-29 06:22:00,60.0,58.0,-100.00,SSW,200,24.0,32.0,95,-99.99,,,-99.99,,2013-01-29 12:22:00,
2013-01-29 06:33:00,59.0,58.0,-100.00,SSW,200,24.0,30.0,96,-99.99,,,-99.99,,2013-01-29 12:33:00,
2013-01-29 06:43:00,59.0,58.0,-100.00,SSW,200,24.0,30.0,96,-99.99,,,-99.99,,2013-01-29 12:43:00,
2013-01-29 06:53:00,59.0,58.0,-100.00,SSW,205,25.0,34.0,96,-99.99,,,-99.99,,2013-01-29 12:53:00,
2013-01-29 07:02:00,59.0,58.0,-100.00,SSW,205,25.0,34.0,96,-99.99,,,-99.99,,2013-01-29 13:02:00,
2013-01-29 07:12:00,59.0,58.0,-100.00,SSW,205,21.0,29.0,96,-99.99,,,-99.99,,2013-01-29 13:12:00,
2013-01-29 07:22:00,59.0,58.0,-100.00,SSW,210,23.0,29.0,96,-99.99,,,-99.99,,2013-01-29 13:22:00,
2013-01-29 07:32:00,59.0,58.0,-100.00,SSW,210,23.0,29.0,96,-99.99,,,-99.99,,2013-01-29 13:32:00,
2013-01-29 07:42:00,59.0,58.0,-100.00,SSW,205,19.0,27.0,96,-99.99,,,-99.99,,2013-01-29 13:42:00,
2013-01-29 07:52:00,59.0,58.0,-100.00,SSW,210,21.0,25.0,96,-99.99,,,-99.99,,2013-01-29 13:52:00,
2013-01-29 08:02:00,59.0,58.0,-100.00,SSW,210,21.0,25.0,96,-99.99,,,-99.99,,2013-01-29 14:02:00,
2013-01-29 08:12:00,59.0,58.0,-100.00,SSW,200,21.0,26.0,96,-99.99,,,-99.99,,2013-01-29 14:12:00,
2013-01-29 08:22:00,59.0,58.0,-100.00,SSW,205,21.0,30.0,96,-99.99,,,-99.99,,2013-01-29 14:22:00,
2013-01-29 08:33:00,59.0,58.0,-100.00,SSW,205,21.0,30.0,96,-99.99,,,-99.99,,2013-01-29 14:33:00,
2013-01-29 08:43:00,59.0,58.0,-100.00,SSW,205,18.0,25.0,96,-99.99,,,-99.99,,2013-01-29 14:43:00,
2013-01-29 08:53:00,59.0,58.0,-100.00,SSW,210,21.0,27.0,96,-99.99,,,-99.99,,2013-01-29 14:53:00,
2013-01-29 09:02:00,59.0,58.0,-100.00,SSW,210,21.0,27.0,96,-99.99,,,-99.99,,2013-01-29 15:02:00,
2013-01-29 09:12:00,59.0,58.0,-100.00,SSW,200,19.0,26.0,96,-99.99,,,-99.99,,2013-01-29 15:12:00,
2013-01-29 09:22:00,60.0,59.0,-100.00,SSW,200,19.0,26.0,96,-99.99,,,-99.99,,2013-01-29 15:22:00,
2013-01-29 09:33:00,60.0,59.0,-100.00,SSW,200,19.0,26.0,96,-99.99,,,-99.99,,2013-01-29 15:33:00,
2013-01-29 09:43:00,60.0,59.0,-100.00,SSW,205,21.0,24.0,95,-99.99,,,-99.99,,2013-01-29 15:43:00,
2013-01-29 09:53:00,61.0,59.0,-100.00,SSW,195,21.0,27.0,94,-99.99,,,-99.99,,2013-01-29 15:53:00,
2013-01-29 10:02:00,61.0,59.0,-100.00,SSW,195,21.0,27.0,94,-99.99,,,-99.99,,2013-01-29 16:02:00,
2013-01-29 10:12:00,61.0,59.0,-100.00,SSW,200,21.0,29.0,93,-99.99,,,-99.99,,2013-01-29 16:12:00,
2013-01-29 10:22:00,62.0,59.0,-100.00,SSW,210,21.0,30.0,92,-99.99,,,-99.99,,2013-01-29 16:22:00,
2013-01-29 10:32:00,62.0,59.0,-100.00,SSW,210,21.0,30.0,92,-99.99,,,-99.99,,2013-01-29 16:32:00,
2013-01-29 10:42:00,62.0,59.0,-100.00,SSW,200,21.0,28.0,91,-99.99,,,-99.99,,2013-01-29 16:42:00,
2013-01-29 10:53:00,62.0,60.0,-100.00,SSW,210,24.0,35.0,91,-99.99,,,-99.99,,2013-01-29 16:53:00,
2013-01-29 11:03:00,62.0,60.0,-100.00,SSW,210,24.0,35.0,91,-99.99,,,-99.99,,2013-01-29 17:03:00,
2013-01-29 11:12:00,62.0,60.0,-100.00,SSW,205,19.0,32.0,91,-99.99,,,-99.99,,2013-01-29 17:12:00,
2013-01-29 11:22:00,62.0,60.0,-100.00,SSW,205,21.0,32.0,91,-99.99,,,-99.99,,2013-01-29 17:22:00,
2013-01-29 11:32:00,62.0,60.0,-100.00,SSW,205,21.0,32.0,91,-99.99,,,-99.99,,2013-01-29 17:32:00,
2013-01-29 11:42:00,62.0,59.0,-100.00,SSW,210,16.0,25.0,91,-99.99,,,-99.99,,2013-01-29 17:42:00,
2013-01-29 11:52:00,62.0,59.0,-100.00,SSW,210,15.0,24.0,91,-99.99,,,-99.99,,2013-01-29 17:52:00,
2013-01-29 12:04:00,62.0,59.0,-100.00,SSW,210,15.0,24.0,91,-99.99,,,-99.99,,2013-01-29 18:04:00,
2013-01-29 12:12:00,62.0,59.0,-100.00,SSW,210,15.0,24.0,91,-99.99,,,-99.99,,2013-01-29 18:12:00,
2013-01-29 12:42:00,61.0,59.0,-100.00,WSW,245,13.0,23.0,94,-99.99,,,-99.99,,2013-01-29 18:42:00,
2013-01-29 12:52:00,60.0,59.0,-100.00,WSW,250,14.0,24.0,96,-99.99,,,-99.99,,2013-01-29 18:52:00,
2013-01-29 13:02:00,60.0,59.0,-100.00,WSW,250,14.0,24.0,96,-99.99,,,-99.99,,2013-01-29 19:02:00,
2013-01-29 13:12:00,60.0,59.0,-100.00,West,260,20.0,29.0,97,-99.99,,,-99.99,,2013-01-29 19:12:00,
2013-01-29 13:22:00,59.0,58.0,-100.00,West,265,17.0,26.0,96,-99.99,,,-99.99,,2013-01-29 19:22:00,
2013-01-29 13:32:00,59.0,58.0,-100.00,West,265,17.0,26.0,96,-99.99,,,-99.99,,2013-01-29 19:32:00,
2013-01-29 13:42:00,59.0,58.0,-100.00,West,270,9.0,17.0,96,-99.99,,,-99.99,,2013-01-29 19:42:00,
2013-01-29 13:52:00,59.0,58.0,-100.00,West,265,11.0,14.0,96,-99.99,,,-99.99,,2013-01-29 19:52:00,
2013-01-29 14:02:00,59.0,58.0,-100.00,West,265,11.0,14.0,96,-99.99,,,-99.99,,2013-01-29 20:02:00,
2013-01-29 14:12:00,58.0,57.0,-100.00,SW,225,9.0,16.0,97,-99.99,,,-99.99,,2013-01-29 20:12:00,
2013-01-29 14:22:00,58.0,57.0,-100.00,WSW,255,9.0,14.0,97,-99.99,,,-99.99,,2013-01-29 20:22:00,
2013-01-29 14:33:00,58.0,57.0,-100.00,WSW,255,9.0,14.0,97,-99.99,,,-99.99,,2013-01-29 20:33:00,
2013-01-29 14:42:00,57.0,57.0,-100.00,WSW,250,14.0,18.0,97,-99.99,,,-99.99,,2013-01-29 20:42:00,
2013-01-29 14:53:00,57.0,56.0,-100.00,West,270,16.0,21.0,97,-99.99,,,-99.99,,2013-01-29 20:53:00,
2013-01-29 15:03:00,57.0,56.0,-100.00,West,270,16.0,21.0,97,-99.99,,,-99.99,,2013-01-29 21:03:00,
2013-01-29 15:12:00,55.0,54.0,-100.00,NW,310,11.0,26.0,97,-99.99,,,-99.99,,2013-01-29 21:12:00,
2013-01-29 15:22:00,54.0,54.0,-100.00,WNW,295,8.0,14.0,98,-99.99,,,-99.99,,2013-01-29 21:22:00,
2013-01-29 15:33:00,54.0,54.0,-100.00,WNW,295,8.0,14.0,98,-99.99,,,-99.99,,2013-01-29 21:33:00,
2013-01-29 15:42:00,54.0,54.0,-100.00,NNW,335,6.0,9.0,98,-99.99,,,-99.99,,2013-01-29 21:42:00,
2013-01-29 15:53:00,54.0,53.0,-100.00,NNW,330,7.0,10.0,98,-99.99,,,-99.99,,2013-01-29 21:53:00,
2013-01-29 16:02:00,54.0,53.0,-100.00,NNW,330,7.0,10.0,98,-99.99,,,-99.99,,2013-01-29 22:02:00,
2013-01-29 16:12:00,53.0,53.0,-100.00,NNW,330,7.0,8.0,98,-99.99,,,-99.99,,2013-01-29 22:12:00,
2013-01-29 16:22:00,53.0,53.0,-100.00,NW,315,5.0,9.0,98,-99.99,,,-99.99,,2013-01-29 22:22:00,
2013-01-29 16:33:00,53.0,53.0,-100.00,NW,315,5.0,9.0,98,-99.99,,,-99.99,,2013-01-29 22:33:00,
2013-01-29 16:42:00,53.0,52.0,-100.00,North,355,5.0,8.0,98,-99.99,,,-99.99,,2013-01-29 22:42:00,
2013-01-29 16:53:00,52.0,51.0,-100.00,North,355,1.0,9.0,98,-99.99,,,-99.99,,2013-01-29 22:53:00,
2013-01-29 17:02:00,52.0,51.0,-100.00,North,355,1.0,9.0,98,-99.99,,,-99.99,,2013-01-29 23:02:00,
2013-01-29 17:12:00,51.0,51.0,-100.00,NE,35,2.0,4.0,98,-99.99,,,-99.99,,2013-01-29 23:12:00,
2013-01-29 17:22:00,51.0,51.0,-100.00,NE,55,1.0,6.0,98,-99.99,,,-99.99,,2013-01-29 23:22:00,
2013-01-29 17:33:00,51.0,51.0,-100.00,NE,55,1.0,6.0,98,-99.99,,,-99.99,,2013-01-29 23:33:00,
2013-01-29 17:42:00,51.0,51.0,-100.00,South,180,0.0,4.0,98,-99.99,,,-99.99,,2013-01-29 23:42:00,
2013-01-29 17:53:00,51.0,51.0,-100.00,SE,125,0.0,3.0,98,-99.99,,,-99.99,,2013-01-29 23:53:00,
2013-01-29 18:03:00,51.0,51.0,-100.00,SE,125,0.0,3.0,98,-99.99,,,-99.99,,2013-01-30 00:03:00,
2013-01-29 18:12:00,51.0,51.0,-100.00,SSE,160,5.0,8.0,98,-99.99,,,-99.99,,2013-01-30 00:12:00,
2013-01-29 18:22:00,51.0,50.0,-100.00,SE,145,5.0,6.0,98,-99.99,,,-99.99,,2013-01-30 00:22:00,
2013-01-29 18:32:00,51.0,50.0,-100.00,SE,145,5.0,6.0,98,-99.99,,,-99.99,,2013-01-30 00:32:00,
2013-01-29 18:42:00,51.0,50.0,-100.00,SE,145,4.0,6.0,98,-99.99,,,-99.99,,2013-01-30 00:42:00,
2013-01-29 18:53:00,51.0,51.0,-100.00,SSE,160,6.0,8.0,98,-99.99,,,-99.99,,2013-01-30 00:53:00,
2013-01-29 19:02:00,51.0,51.0,-100.00,SSE,160,6.0,8.0,98,-99.99,,,-99.99,,2013-01-30 01:02:00,
2013-01-29 19:12:00,51.0,51.0,-100.00,SE,140,4.0,6.0,98,-99.99,,,-99.99,,2013-01-30 01:12:00,
2013-01-29 19:22:00,50.0,49.0,-100.00,ESE,120,4.0,5.0,98,-99.99,,,-99.99,,2013-01-30 01:22:00,
2013-01-29 19:32:00,50.0,49.0,-100.00,ESE,120,4.0,5.0,98,-99.99,,,-99.99,,2013-01-30 01:32:00,
2013-01-29 19:42:00,49.0,49.0,-100.00,ESE,110,5.0,6.0,98,-99.99,,,-99.99,,2013-01-30 01:42:00,
2013-01-29 19:52:00,49.0,49.0,-100.00,SSE,150,7.0,8.0,98,-99.99,,,-99.99,,2013-01-30 01:52:00,
2013-01-29 20:02:00,49.0,49.0,-100.00,SSE,150,7.0,8.0,98,-99.99,,,-99.99,,2013-01-30 02:02:00,
2013-01-29 20:12:00,51.0,50.0,-100.00,SSW,205,2.0,5.0,98,-99.99,,,-99.99,,2013-01-30 02:12:00,
2013-01-29 20:22:00,48.0,48.0,-100.00,NW,305,14.0,17.0,98,-99.99,,,-99.99,,2013-01-30 02:22:00,
2013-01-29 20:33:00,46.0,46.0,-100.00,NW,310,11.0,14.0,98,-99.99,,,-99.99,,2013-01-30 02:33:00,
2013-01-29 20:42:00,46.0,46.0,-100.00,NW,310,11.0,14.0,98,-99.99,,,-99.99,,2013-01-30 02:42:00,
2013-01-29 20:53:00,45.0,45.0,-100.00,NNW,330,9.0,14.0,98,-99.99,,,-99.99,,2013-01-30 02:53:00,
2013-01-29 21:03:00,45.0,45.0,-100.00,NNW,330,9.0,14.0,98,-99.99,,,-99.99,,2013-01-30 03:03:00,
2013-01-29 21:12:00,45.0,45.0,-100.00,NNW,340,6.0,10.0,99,-99.99,,,-99.99,,2013-01-30 03:12:00,
2013-01-29 21:22:00,44.0,44.0,-100.00,North,0,3.0,6.0,99,-99.99,,,-99.99,,2013-01-30 03:22:00,
2013-01-29 21:32:00,44.0,44.0,-100.00,North,0,3.0,6.0,99,-99.99,,,-99.99,,2013-01-30 03:32:00,
2013-01-29 21:42:00,44.0,44.0,-100.00,WNW,290,5.0,6.0,99,-99.99,,,-99.99,,2013-01-30 03:42:00,
2013-01-29 21:52:00,43.0,43.0,-100.00,WNW,300,16.0,20.0,99,-99.99,,,-99.99,,2013-01-30 03:52:00,
2013-01-29 22:02:00,43.0,43.0,-100.00,WNW,300,16.0,20.0,99,-99.99,,,-99.99,,2013-01-30 04:02:00,
2013-01-29 22:12:00,41.0,41.0,-100.00,NW,315,15.0,20.0,99,-99.99,,,-99.99,,2013-01-30 04:12:00,
2013-01-29 22:22:00,41.0,41.0,-100.00,NW,305,9.0,11.0,99,-99.99,,,-99.99,,2013-01-30 04:22:00,
2013-01-29 22:32:00,40.0,40.0,-100.00,WNW,300,14.0,16.0,99,-99.99,,,-99.99,,2013-01-30 04:32:00,
2013-01-29 22:41:00,40.0,40.0,-100.00,WNW,300,14.0,16.0,99,-99.99,,,-99.99,,2013-01-30 04:41:00,
2013-01-29 22:52:00,40.0,39.0,-100.00,NW,320,6.0,18.0,99,-99.99,,,-99.99,,2013-01-30 04:52:00,
2013-01-29 23:03:00,40.0,39.0,-100.00,NW,320,6.0,18.0,99,-99.99,,,-99.99,,2013-01-30 05:03:00,
2013-01-29 23:12:00,39.0,39.0,-100.00,NW,320,11.0,16.0,99,-99.99,,,-99.99,,2013-01-30 05:12:00,
2013-01-29 23:22:00,39.0,38.0,-100.00,NW,315,15.0,17.0,99,-99.99,,,-99.99,,2013-01-30 05:22:00,
2013-01-29 23:32:00,39.0,38.0,-100.00,NW,315,15.0,17.0,99,-99.99,,,-99.99,,2013-01-30 05:32:00,
2013-01-29 23:43:00,38.0,38.0,-100.00,NW,325,13.0,18.0,99,-99.99,,,-99.99,,2013-01-30 05:43:00,
2013-01-29 23:52:00,38.0,38.0,-100.00,NNW,345,13.0,16.0,99,-99.99,,,-99.99,,2013-01-30 05:52:00,